Time;durP1;ratioP1;P1;durP2;ratioP2;P2;SDS_P1;SDS_P2;PMS_P1;PMS_P2;Temp;Humidity;BMP_temperature;BMP_pressure;BME280_temperature;BME280_humidity;BME280_pressure;Samples;Min_cycle;Max_cycle;Signal;HPM_P1;HPM_P2
2022/12/11 00:02:18;;;;;;;56.17;11.85;;;-0.80;99.90;;;;;;5117528;27;20428;-61
2022/12/11 00:04:44;;;;;;;81.00;15.75;;;-0.80;99.90;;;;;;5115906;27;20401;-61
2022/12/11 00:07:10;;;;;;;45.60;14.63;;;-0.80;99.90;;;;;;5113633;27;20057;-61
2022/12/11 00:09:36;;;;;;;78.18;16.13;;;-0.80;99.90;;;;;;5096498;27;20042;-61
2022/12/11 00:12:04;;;;;;;58.35;15.55;;;-0.80;99.90;;;;;;5096440;28;20070;-61
2022/12/11 00:14:30;;;;;;;67.30;15.43;;;-0.80;99.90;;;;;;5121651;27;20046;-61
2022/12/11 00:16:56;;;;;;;63.60;16.27;;;-0.70;99.90;;;;;;5116982;27;20047;-61
2022/12/11 00:19:22;;;;;;;81.88;14.80;;;-0.70;99.90;;;;;;5088337;28;20047;-60
2022/12/11 00:21:48;;;;;;;45.15;14.77;;;-0.70;99.90;;;;;;5107857;28;20043;-61
2022/12/11 00:24:13;;;;;;;77.30;15.88;;;-0.80;99.90;;;;;;5106429;28;20039;-61
2022/12/11 00:26:39;;;;;;;118.05;16.17;;;-0.80;99.90;;;;;;5122062;27;20046;-61
2022/12/11 00:29:07;;;;;;;79.43;14.65;;;-0.80;99.90;;;;;;5115813;27;20071;-61
2022/12/11 00:31:33;;;;;;;69.90;15.82;;;-0.80;99.90;;;;;;5102206;28;20055;-61
2022/12/11 00:34:01;;;;;;;57.65;16.63;;;-0.80;99.90;;;;;;5106964;28;20066;-61
2022/12/11 00:36:27;;;;;;;81.85;15.70;;;-0.80;99.90;;;;;;5110521;27;20096;-61
2022/12/11 00:38:53;;;;;;;60.97;16.52;;;-0.80;99.90;;;;;;5119375;27;20115;-60
2022/12/11 00:41:19;;;;;;;76.45;17.27;;;-0.70;99.90;;;;;;5106181;28;20137;-61
2022/12/11 00:43:45;;;;;;;49.10;13.85;;;-0.80;99.90;;;;;;5108319;27;20024;-61
2022/12/11 00:46:12;;;;;;;88.35;16.88;;;-0.80;99.90;;;;;;5115165;27;20055;-61
2022/12/11 00:48:38;;;;;;;70.05;17.30;;;-0.80;99.90;;;;;;5107485;28;20440;-60
2022/12/11 00:51:04;;;;;;;56.85;14.68;;;-0.80;99.90;;;;;;5106765;28;20035;-61
2022/12/11 00:53:30;;;;;;;81.50;15.55;;;-0.80;99.90;;;;;;5088496;28;20469;-61
2022/12/11 00:55:57;;;;;;;69.10;16.33;;;-0.80;99.90;;;;;;5108349;27;20420;-61
2022/12/11 00:58:22;;;;;;;52.72;15.00;;;-0.80;99.90;;;;;;5087408;28;20043;-61
2022/12/11 01:00:48;;;;;;;63.25;12.68;;;-0.80;99.90;;;;;;5106598;28;20035;-61
2022/12/11 01:03:15;;;;;;;62.17;16.25;;;-0.80;99.90;;;;;;5089447;28;20039;-61
2022/12/11 01:05:41;;;;;;;47.78;13.88;;;-0.80;99.90;;;;;;5113327;27;20082;-61
2022/12/11 01:08:07;;;;;;;56.08;15.85;;;-0.90;99.90;;;;;;5125035;27;20051;-61
2022/12/11 01:10:33;;;;;;;42.25;15.65;;;-0.90;99.90;;;;;;5095464;28;20088;-61
2022/12/11 01:13:02;;;;;;;55.63;15.38;;;-0.80;99.90;;;;;;5106546;28;20478;-61
2022/12/11 01:15:31;;;;;;;65.88;18.33;;;-0.80;99.90;;;;;;5105884;28;20074;-61
2022/12/11 01:17:57;;;;;;;41.97;17.13;;;-0.80;99.90;;;;;;5117347;27;20039;-61
2022/12/11 01:20:24;;;;;;;49.03;15.90;;;-0.80;99.90;;;;;;5117082;27;20486;-61
2022/12/11 01:22:55;;;;;;;62.63;17.33;;;-0.80;99.90;;;;;;5107027;28;20043;-61
2022/12/11 01:25:22;;;;;;;55.85;15.73;;;-0.80;99.90;;;;;;5105762;28;20079;-61
2022/12/11 01:27:50;;;;;;;44.95;15.15;;;-0.80;99.90;;;;;;5088814;28;20469;-61
2022/12/11 01:30:17;;;;;;;39.95;12.90;;;-0.80;99.90;;;;;;5106607;28;20485;-61
2022/12/11 01:32:43;;;;;;;54.13;14.23;;;-0.90;99.90;;;;;;5106658;27;20047;-61
2022/12/11 01:35:10;;;;;;;45.50;14.45;;;-0.90;99.90;;;;;;5124616;27;20096;-61
2022/12/11 01:37:36;;;;;;;41.75;13.80;;;-0.90;99.90;;;;;;5115793;28;20517;-61
2022/12/11 01:40:05;;;;;;;25.88;8.57;;;-0.90;99.90;;;;;;5107111;28;20093;-61
2022/12/11 01:42:31;;;;;;;42.25;15.73;;;-0.90;99.90;;;;;;5086802;28;20043;-61
2022/12/11 01:45:21;;;;;;;36.80;15.00;;;-1.00;99.90;;;;;;5120023;28;20043;-61
2022/12/11 01:47:48;;;;;;;45.88;14.80;;;-0.90;99.90;;;;;;5091644;28;20062;-61
2022/12/11 01:50:15;;;;;;;40.03;13.52;;;-0.90;99.90;;;;;;5117081;28;20415;-61
2022/12/11 01:52:43;;;;;;;36.10;12.32;;;-0.90;99.90;;;;;;5117205;28;20040;-61
2022/12/11 01:55:09;;;;;;;39.53;13.85;;;-0.90;99.90;;;;;;5090829;28;20101;-61
2022/12/11 01:57:41;;;;;;;45.47;16.55;;;-0.90;99.90;;;;;;5126602;28;20477;-61
2022/12/11 02:00:08;;;;;;;49.97;16.08;;;-0.90;99.90;;;;;;5126625;28;20035;-61
2022/12/11 02:02:35;;;;;;;41.60;16.08;;;-0.90;99.90;;;;;;5112753;28;20054;-61
2022/12/11 02:05:03;;;;;;;44.80;15.55;;;-0.90;99.90;;;;;;5125097;28;20445;-61
2022/12/11 02:07:41;;;;;;;41.53;14.10;;;-0.80;99.90;;;;;;5125624;28;20504;-61
2022/12/11 02:10:08;;;;;;;40.78;15.55;;;-0.80;99.90;;;;;;5126261;28;20500;-61
2022/12/11 02:13:00;;;;;;;38.03;14.65;;;-0.80;99.90;;;;;;5087307;28;20515;-61
2022/12/11 02:15:29;;;;;;;37.90;12.93;;;-0.80;99.90;;;;;;5106339;28;20039;-61
2022/12/11 02:18:18;;;;;;;43.25;14.50;;;-0.80;99.90;;;;;;5109853;28;20502;-61
2022/12/11 02:20:54;;;;;;;44.40;14.57;;;-0.70;99.90;;;;;;5090635;28;20507;-61
2022/12/11 02:23:52;;;;;;;43.42;15.95;;;-0.70;99.90;;;;;;5110947;28;20035;-61
2022/12/11 02:26:55;;;;;;;36.85;13.38;;;-0.70;99.90;;;;;;5106209;27;20063;-61
2022/12/11 02:29:34;;;;;;;43.40;15.20;;;-0.70;99.90;;;;;;5074390;28;20086;-61
2022/12/11 02:32:08;;;;;;;32.35;11.98;;;-0.70;99.90;;;;;;5111278;28;20042;-61
2022/12/11 02:34:42;;;;;;;35.70;14.05;;;-0.70;99.90;;;;;;5108986;28;20040;-61
2022/12/11 02:37:14;;;;;;;35.58;13.05;;;-0.70;99.90;;;;;;5110756;27;20133;-61
2022/12/11 02:39:42;;;;;;;32.17;11.75;;;-0.70;99.90;;;;;;5091431;28;20079;-61
2022/12/11 02:42:09;;;;;;;32.05;12.70;;;-0.70;99.90;;;;;;5108883;28;20051;-61
2022/12/11 02:44:37;;;;;;;38.40;13.63;;;-0.60;99.90;;;;;;5091780;28;20164;-61
2022/12/11 02:47:10;;;;;;;32.42;13.38;;;-0.60;99.90;;;;;;5090326;28;20040;-61
2022/12/11 02:49:39;;;;;;;25.05;10.65;;;-0.60;99.90;;;;;;5109803;28;20048;-61
2022/12/11 02:52:06;;;;;;;31.42;11.70;;;-0.60;99.90;;;;;;5109345;28;20071;-61
2022/12/11 02:54:36;;;;;;;41.33;13.10;;;-0.60;99.90;;;;;;5108947;27;20099;-61
2022/12/11 02:57:23;;;;;;;29.65;12.35;;;-0.50;99.90;;;;;;5091017;28;20047;-61
2022/12/11 02:59:48;;;;;;;32.25;11.23;;;-0.60;99.90;;;;;;5108490;28;20066;-61
2022/12/11 03:02:15;;;;;;;40.10;13.23;;;-0.50;99.90;;;;;;5110008;27;20485;-61
2022/12/11 03:04:43;;;;;;;39.42;13.88;;;-0.50;99.90;;;;;;5095567;27;20062;-61
2022/12/11 03:07:17;;;;;;;33.47;12.27;;;-0.50;99.90;;;;;;5111243;27;20509;-61
2022/12/11 03:09:45;;;;;;;38.72;12.93;;;-0.50;99.90;;;;;;5097877;27;20043;-61
2022/12/11 03:12:18;;;;;;;29.33;11.75;;;-0.50;99.90;;;;;;5115598;27;20035;-61
2022/12/11 03:14:45;;;;;;;35.38;11.73;;;-0.50;99.90;;;;;;5111404;27;20044;-61
2022/12/11 03:17:21;;;;;;;41.17;12.43;;;-0.50;99.90;;;;;;5116097;27;20044;-61
2022/12/11 03:20:21;;;;;;;38.22;12.43;;;-0.50;99.90;;;;;;5114983;27;20043;-61
2022/12/11 03:23:14;;;;;;;27.42;11.20;;;-0.50;99.90;;;;;;5093451;28;20520;-61
2022/12/11 03:25:49;;;;;;;29.88;10.75;;;-0.50;99.90;;;;;;5108837;27;20036;-61
2022/12/11 03:28:41;;;;;;;37.83;12.25;;;-0.50;99.90;;;;;;5121423;27;20035;-61
2022/12/11 03:31:10;;;;;;;37.95;12.77;;;-0.50;99.90;;;;;;5109325;27;20503;-61
2022/12/11 03:33:41;;;;;;;31.17;10.80;;;-0.40;99.90;;;;;;5107831;28;20039;-61
2022/12/11 03:36:16;;;;;;;38.20;12.85;;;-0.40;99.90;;;;;;5109924;27;20049;-61
2022/12/11 03:38:57;;;;;;;30.70;11.40;;;-0.40;99.90;;;;;;5107938;28;20036;-61
2022/12/11 03:41:26;;;;;;;37.03;11.52;;;-0.40;99.90;;;;;;5108545;28;20051;-61
2022/12/11 03:43:55;;;;;;;37.67;12.52;;;-0.40;99.90;;;;;;5107745;28;20509;-61
2022/12/11 03:46:26;;;;;;;40.83;13.02;;;-0.40;99.90;;;;;;5109283;27;20654;-61
2022/12/11 03:48:54;;;;;;;41.78;11.80;;;-0.40;99.90;;;;;;5108476;28;20058;-61
2022/12/11 03:51:23;;;;;;;35.97;11.63;;;-0.40;99.90;;;;;;5119547;27;20095;-61
2022/12/11 03:53:49;;;;;;;31.35;11.23;;;-0.30;99.90;;;;;;5090473;28;20081;-61
2022/12/11 03:56:16;;;;;;;39.40;12.77;;;-0.30;99.90;;;;;;5107456;28;20055;-61
2022/12/11 03:58:42;;;;;;;40.45;12.98;;;-0.30;99.90;;;;;;5108304;27;20049;-61
2022/12/11 04:01:10;;;;;;;36.25;12.10;;;-0.30;99.90;;;;;;5110319;27;20126;-61
2022/12/11 04:03:44;;;;;;;33.25;11.32;;;-0.30;99.90;;;;;;5092834;28;20047;-61
2022/12/11 04:06:09;;;;;;;42.58;12.55;;;-0.30;99.90;;;;;;5108177;28;20541;-61
2022/12/11 04:08:35;;;;;;;47.60;14.43;;;-0.30;99.90;;;;;;5118292;27;20130;-61
2022/12/11 04:15:00;;;;;;;38.50;12.23;;;-0.30;99.90;;;;;;5107131;28;20047;-61
2022/12/11 04:16:34;;;;;;;26.52;9.82;;;-0.20;99.90;;;;;;5114942;27;20493;-61
2022/12/11 04:24:30;;;;;;;36.60;12.20;;;-0.20;99.90;;;;;;5111479;27;20047;-61
2022/12/11 04:26:56;;;;;;;43.30;12.23;;;-0.20;99.90;;;;;;5108651;27;20051;-61
2022/12/11 04:29:22;;;;;;;39.20;12.93;;;-0.20;99.90;;;;;;5108571;27;20041;-61
2022/12/11 04:31:49;;;;;;;44.72;12.85;;;-0.20;99.90;;;;;;5114175;27;20075;-61
2022/12/11 04:34:15;;;;;;;43.90;14.32;;;-0.20;99.90;;;;;;5114009;27;20059;-61
2022/12/11 04:36:41;;;;;;;44.65;13.63;;;-0.20;99.90;;;;;;5107609;28;20047;-61
2022/12/11 04:39:07;;;;;;;48.65;13.77;;;-0.20;99.90;;;;;;5106603;28;20074;-61
2022/12/11 04:41:33;;;;;;;52.05;13.98;;;-0.20;99.90;;;;;;5107587;28;20040;-61
2022/12/11 04:43:58;;;;;;;36.17;12.02;;;-0.20;99.90;;;;;;5088032;28;20040;-61
2022/12/11 04:46:24;;;;;;;49.90;13.05;;;-0.20;99.90;;;;;;5108110;28;20048;-61
2022/12/11 04:48:52;;;;;;;49.45;13.32;;;-0.20;99.90;;;;;;5107425;28;20050;-61
2022/12/11 04:51:18;;;;;;;46.67;12.70;;;-0.10;99.90;;;;;;5106978;28;20516;-61
2022/12/11 04:53:45;;;;;;;53.92;13.50;;;-0.10;99.90;;;;;;5088604;28;20097;-61
2022/12/11 04:56:13;;;;;;;49.05;14.43;;;-0.10;99.90;;;;;;5087959;28;20079;-61
2022/12/11 04:58:41;;;;;;;55.53;14.43;;;-0.10;99.90;;;;;;5099204;28;20043;-61
2022/12/11 05:01:18;;;;;;;54.30;14.25;;;-0.10;99.90;;;;;;5105693;27;20103;-61
2022/12/11 05:03:44;;;;;;;49.10;13.45;;;-0.10;99.90;;;;;;5107041;28;20039;-61
2022/12/11 05:06:11;;;;;;;49.78;15.13;;;-0.10;99.90;;;;;;5111456;27;20046;-61
2022/12/11 05:08:39;;;;;;;44.33;13.52;;;-0.10;99.90;;;;;;5091932;28;20546;-61
2022/12/11 05:11:08;;;;;;;54.70;15.48;;;-0.10;99.90;;;;;;5121014;27;20046;-61
2022/12/11 05:13:34;;;;;;;53.80;14.73;;;-0.10;99.90;;;;;;5109095;28;20033;-61
2022/12/11 05:16:03;;;;;;;52.80;14.68;;;0.00;99.90;;;;;;5072594;27;20051;-60
2022/12/11 05:18:30;;;;;;;50.97;14.55;;;-0.10;99.90;;;;;;5109591;27;20063;-61
2022/12/11 05:20:57;;;;;;;60.20;14.98;;;-0.10;99.90;;;;;;5092508;28;20577;-61
2022/12/11 05:23:23;;;;;;;55.53;13.98;;;-0.10;99.90;;;;;;5106516;28;20044;-61
2022/12/11 05:25:57;;;;;;;60.33;15.48;;;0.00;99.90;;;;;;5106121;28;20073;-61
2022/12/11 05:28:23;;;;;;;54.83;15.25;;;0.00;99.90;;;;;;5113875;27;20114;-61
2022/12/11 05:30:59;;;;;;;49.38;13.15;;;0.00;99.90;;;;;;5092552;28;20048;-61
2022/12/11 05:33:25;;;;;;;64.90;15.48;;;0.00;99.90;;;;;;5106740;28;20150;-61
2022/12/11 05:35:50;;;;;;;63.28;14.95;;;0.00;99.90;;;;;;5106078;28;20389;-61
2022/12/11 05:38:16;;;;;;;50.95;15.30;;;0.00;99.90;;;;;;5106973;28;20036;-61
2022/12/11 05:40:43;;;;;;;60.17;14.75;;;0.00;99.90;;;;;;5107404;28;20093;-61
2022/12/11 05:43:09;;;;;;;51.85;13.60;;;0.00;99.90;;;;;;5105649;28;20127;-61
2022/12/11 05:45:34;;;;;;;41.58;13.90;;;0.00;99.90;;;;;;5106464;28;20044;-61
2022/12/11 05:48:00;;;;;;;57.53;13.52;;;0.00;99.90;;;;;;5105177;28;20032;-61
2022/12/11 05:50:26;;;;;;;43.10;13.77;;;0.00;99.90;;;;;;5108393;28;20485;-61
2022/12/11 05:52:52;;;;;;;60.42;15.55;;;0.00;99.90;;;;;;5109711;28;20043;-61
2022/12/11 05:55:17;;;;;;;35.08;13.27;;;0.00;99.90;;;;;;5092788;28;20393;-61
2022/12/11 05:57:43;;;;;;;41.63;13.75;;;0.00;99.90;;;;;;5110652;28;20439;-61
2022/12/11 06:00:12;;;;;;;41.90;14.02;;;0.00;99.90;;;;;;5109862;28;20074;-61
2022/12/11 06:02:37;;;;;;;46.90;13.88;;;0.00;99.90;;;;;;5114089;27;20045;-61
2022/12/11 06:05:03;;;;;;;44.17;12.63;;;0.00;99.90;;;;;;5123064;27;20126;-61
2022/12/11 06:07:29;;;;;;;51.17;14.15;;;0.00;99.90;;;;;;5111025;28;20040;-61
2022/12/11 06:09:55;;;;;;;50.40;13.00;;;0.10;99.90;;;;;;5073838;28;20402;-61
2022/12/11 06:12:20;;;;;;;45.70;13.20;;;0.00;99.90;;;;;;5104951;27;20112;-61
2022/12/11 06:14:46;;;;;;;50.88;14.38;;;0.00;99.90;;;;;;5129841;27;20114;-61
2022/12/11 06:17:12;;;;;;;52.05;14.30;;;0.10;99.90;;;;;;5128566;27;20450;-61
2022/12/11 06:19:37;;;;;;;51.13;15.48;;;0.10;99.90;;;;;;5122036;27;20043;-61
2022/12/11 06:22:04;;;;;;;53.63;15.45;;;0.00;99.90;;;;;;5093125;28;20059;-61
2022/12/11 06:24:29;;;;;;;55.10;15.65;;;0.10;99.90;;;;;;5104196;28;20047;-61
2022/12/11 06:26:55;;;;;;;67.45;16.98;;;0.00;99.90;;;;;;5092786;28;20103;-61
2022/12/11 06:29:21;;;;;;;63.28;17.10;;;0.10;99.90;;;;;;5096236;27;20058;-61
2022/12/11 06:31:47;;;;;;;48.03;15.30;;;0.10;99.90;;;;;;5098218;27;20105;-61
2022/12/11 06:34:13;;;;;;;58.78;14.95;;;0.10;99.90;;;;;;5081845;28;20497;-61
2022/12/11 06:36:39;;;;;;;54.22;15.13;;;0.10;99.90;;;;;;5116962;27;20512;-61
2022/12/11 06:39:05;;;;;;;53.50;14.57;;;0.10;99.90;;;;;;5129672;27;20047;-61
2022/12/11 06:41:30;;;;;;;41.28;13.73;;;0.10;99.90;;;;;;5107472;27;20055;-61
2022/12/11 06:43:57;;;;;;;55.22;15.63;;;0.10;99.90;;;;;;5119674;27;20043;-61
2022/12/11 06:46:22;;;;;;;55.38;16.02;;;0.10;99.90;;;;;;5130036;27;20127;-61
2022/12/11 06:48:48;;;;;;;58.40;13.68;;;0.10;99.90;;;;;;5127298;27;20118;-61
2022/12/11 06:51:19;;;;;;;54.00;16.50;;;0.10;99.90;;;;;;5115481;27;20054;-61
2022/12/11 06:53:51;;;;;;;69.97;17.77;;;0.10;99.90;;;;;;5115231;27;20046;-61
2022/12/11 06:56:17;;;;;;;56.47;16.35;;;0.10;99.90;;;;;;5081368;27;20078;-61
2022/12/11 06:58:43;;;;;;;53.53;16.92;;;0.20;99.90;;;;;;5116809;27;20043;-61
2022/12/11 07:01:16;;;;;;;46.55;13.82;;;0.10;99.90;;;;;;5126087;27;20093;-61
2022/12/11 07:03:42;;;;;;;56.85;16.80;;;0.10;99.90;;;;;;5126150;27;20043;-61
2022/12/11 07:06:09;;;;;;;54.03;15.57;;;0.10;99.90;;;;;;5100321;28;20074;-61
2022/12/11 07:08:35;;;;;;;56.15;15.55;;;0.10;99.90;;;;;;5126995;27;20042;-61
2022/12/11 07:11:05;;;;;;;48.92;15.43;;;0.10;99.90;;;;;;5125632;27;20044;-61
2022/12/11 07:13:31;;;;;;;69.15;17.58;;;0.20;99.90;;;;;;5095672;27;20039;-61
2022/12/11 07:15:59;;;;;;;58.22;15.57;;;0.10;99.90;;;;;;5112732;27;20053;-61
2022/12/11 07:18:26;;;;;;;60.65;15.00;;;0.20;99.90;;;;;;5108299;28;20044;-61
2022/12/11 07:20:53;;;;;;;47.42;13.68;;;0.10;99.90;;;;;;5108991;28;20051;-61
2022/12/11 07:23:18;;;;;;;51.67;15.10;;;0.20;99.90;;;;;;5089294;28;20047;-61
2022/12/11 07:25:45;;;;;;;59.97;15.73;;;0.10;99.90;;;;;;5079880;28;20052;-61
2022/12/11 07:28:11;;;;;;;46.33;13.90;;;0.20;99.90;;;;;;5107665;28;20515;-61
2022/12/11 07:30:38;;;;;;;54.15;15.38;;;0.10;99.90;;;;;;5090462;28;20048;-61
2022/12/11 07:33:04;;;;;;;51.42;16.00;;;0.10;99.90;;;;;;5109184;28;20048;-61
2022/12/11 07:35:30;;;;;;;44.97;12.68;;;0.10;99.90;;;;;;5093316;28;20055;-61
2022/12/11 07:37:58;;;;;;;58.47;16.00;;;0.10;99.90;;;;;;5108943;28;20477;-61
2022/12/11 07:40:24;;;;;;;44.95;13.82;;;0.10;99.90;;;;;;5107663;28;20074;-61
2022/12/11 07:42:49;;;;;;;51.92;16.15;;;0.10;99.90;;;;;;5109253;28;20039;-61
2022/12/11 07:45:16;;;;;;;40.83;13.57;;;0.10;99.90;;;;;;5120392;27;20097;-61
2022/12/11 07:47:41;;;;;;;40.35;13.10;;;0.10;99.90;;;;;;5108677;28;20505;-61
2022/12/11 07:50:07;;;;;;;52.97;14.35;;;0.10;99.90;;;;;;5108538;28;20043;-61
2022/12/11 07:52:34;;;;;;;58.58;16.45;;;0.10;99.90;;;;;;5108385;28;20047;-61
2022/12/11 07:54:59;;;;;;;60.85;16.00;;;0.10;99.90;;;;;;5109144;27;20043;-61
2022/12/11 07:57:26;;;;;;;57.78;17.17;;;0.10;99.90;;;;;;5119830;27;20046;-61
2022/12/11 07:59:52;;;;;;;49.75;14.38;;;0.10;99.90;;;;;;5090162;28;20062;-61
2022/12/11 08:02:17;;;;;;;74.28;18.10;;;0.10;99.90;;;;;;5094404;27;20043;-61
2022/12/11 08:04:44;;;;;;;56.88;18.20;;;0.10;99.90;;;;;;5089315;27;20486;-61
2022/12/11 08:07:09;;;;;;;55.17;15.48;;;0.10;99.90;;;;;;5122482;27;20042;-61
2022/12/11 08:09:35;;;;;;;43.85;14.48;;;0.10;99.90;;;;;;5109706;27;20039;-61
2022/12/11 08:12:01;;;;;;;50.25;15.18;;;0.10;99.90;;;;;;5099121;27;20572;-61
2022/12/11 08:14:26;;;;;;;51.35;17.13;;;0.10;99.90;;;;;;5117155;27;20043;-61
2022/12/11 08:16:52;;;;;;;65.80;17.35;;;0.10;99.90;;;;;;5121209;27;20405;-61
2022/12/11 08:19:18;;;;;;;65.53;17.17;;;0.20;99.90;;;;;;5126642;27;20045;-61
2022/12/11 08:21:44;;;;;;;58.05;17.27;;;0.10;99.90;;;;;;5128401;27;20043;-61
2022/12/11 08:24:10;;;;;;;35.92;13.35;;;0.10;99.90;;;;;;5127561;27;20038;-61
2022/12/11 08:26:36;;;;;;;62.70;15.95;;;0.20;99.90;;;;;;5104658;28;20573;-61
2022/12/11 08:29:02;;;;;;;49.97;14.68;;;0.20;99.90;;;;;;5127880;27;20042;-61
2022/12/11 08:31:28;;;;;;;43.53;14.63;;;0.20;99.90;;;;;;5126275;27;20039;-61
2022/12/11 08:33:55;;;;;;;38.97;13.05;;;0.20;99.90;;;;;;5127535;27;20051;-61
2022/12/11 08:36:23;;;;;;;59.22;16.13;;;0.10;99.90;;;;;;5126543;27;20127;-61
2022/12/11 08:38:49;;;;;;;46.30;15.13;;;0.20;99.90;;;;;;5116295;27;20058;-61
2022/12/11 08:41:21;;;;;;;48.95;14.30;;;0.20;99.90;;;;;;5126589;27;20085;-61
2022/12/11 08:43:47;;;;;;;49.97;14.20;;;0.20;99.90;;;;;;5087442;27;20454;-61
2022/12/11 08:46:14;;;;;;;46.75;14.30;;;0.20;99.90;;;;;;5127495;27;20108;-61
2022/12/11 08:48:41;;;;;;;51.15;13.98;;;0.20;99.90;;;;;;5120527;27;20070;-61
2022/12/11 08:51:12;;;;;;;51.08;15.63;;;0.20;99.90;;;;;;5109011;27;20075;-61
2022/12/11 08:53:38;;;;;;;58.17;15.95;;;0.20;99.90;;;;;;5126468;27;20043;-61
2022/12/11 08:56:07;;;;;;;47.05;12.68;;;0.30;99.90;;;;;;5109739;27;20050;-61
2022/12/11 08:58:33;;;;;;;41.38;12.25;;;0.20;99.90;;;;;;5123341;27;20049;-61
2022/12/11 09:00:59;;;;;;;36.72;11.75;;;0.20;99.90;;;;;;5101432;28;20047;-61
2022/12/11 09:03:25;;;;;;;40.75;13.82;;;0.20;99.90;;;;;;5126812;27;20046;-61
2022/12/11 09:05:51;;;;;;;43.17;14.30;;;0.20;99.90;;;;;;5079413;27;20070;-61
2022/12/11 09:08:16;;;;;;;41.85;12.65;;;0.20;99.90;;;;;;5119947;27;20054;-61
2022/12/11 09:10:42;;;;;;;40.13;10.95;;;0.20;99.90;;;;;;5124388;27;20047;-61
2022/12/11 09:13:08;;;;;;;53.03;13.10;;;0.20;99.90;;;;;;5107168;28;20044;-61
2022/12/11 09:15:34;;;;;;;36.45;12.20;;;0.30;99.90;;;;;;5087554;28;20046;-61
2022/12/11 09:18:00;;;;;;;42.40;12.93;;;0.30;99.90;;;;;;5088835;28;20093;-61
2022/12/11 09:20:26;;;;;;;45.22;14.02;;;0.30;99.90;;;;;;5105592;28;20051;-61
2022/12/11 09:22:51;;;;;;;46.90;15.88;;;0.30;99.90;;;;;;5088110;28;20393;-61
2022/12/11 09:25:19;;;;;;;36.92;12.55;;;0.30;99.90;;;;;;5105629;28;20127;-60
2022/12/11 09:27:45;;;;;;;43.58;13.82;;;0.30;99.90;;;;;;5105672;28;20047;-61
2022/12/11 09:30:12;;;;;;;52.03;15.00;;;0.30;99.90;;;;;;5092055;27;20532;-61
2022/12/11 09:32:38;;;;;;;40.10;11.52;;;0.30;99.90;;;;;;5091243;28;20043;-61
2022/12/11 09:35:05;;;;;;;47.38;14.98;;;0.30;99.90;;;;;;5106579;28;20052;-61
2022/12/11 09:37:32;;;;;;;43.97;13.23;;;0.30;99.90;;;;;;5086775;28;20043;-61
2022/12/11 09:39:58;;;;;;;42.85;13.90;;;0.30;99.90;;;;;;5106289;28;20082;-61
2022/12/11 09:42:43;;;;;;;39.00;13.40;;;0.40;99.90;;;;;;5114468;27;20078;-61
2022/12/11 09:45:12;;;;;;;40.65;13.70;;;0.40;99.90;;;;;;5087971;28;20052;-61
2022/12/11 09:47:44;;;;;;;40.88;13.00;;;0.40;99.90;;;;;;5106573;28;20052;-61
2022/12/11 09:50:18;;;;;;;42.78;13.40;;;0.40;99.90;;;;;;5110963;28;20081;-61
2022/12/11 09:53:09;;;;;;;42.67;13.75;;;0.40;99.90;;;;;;5124871;28;20066;-61
2022/12/11 09:55:42;;;;;;;45.38;13.68;;;0.40;99.90;;;;;;5088789;28;20472;-61
2022/12/11 09:58:24;;;;;;;39.33;12.20;;;0.40;99.90;;;;;;5120594;28;20493;-61
2022/12/11 10:01:08;;;;;;;49.15;14.02;;;0.40;99.90;;;;;;5107690;28;20405;-61
2022/12/11 10:03:55;;;;;;;42.95;13.63;;;0.50;99.90;;;;;;5074046;28;20039;-61
2022/12/11 10:06:30;;;;;;;49.00;14.65;;;0.50;99.90;;;;;;5126565;28;20080;-61
2022/12/11 10:09:08;;;;;;;39.78;13.48;;;0.50;99.90;;;;;;5109720;28;20039;-61
2022/12/11 10:11:59;;;;;;;50.88;15.40;;;0.50;99.90;;;;;;5095196;28;20083;-61
2022/12/11 10:14:56;;;;;;;41.25;12.88;;;0.40;99.90;;;;;;5070185;28;20136;-61
2022/12/11 10:17:29;;;;;;;39.53;12.73;;;0.50;99.90;;;;;;5122446;28;20051;-61
2022/12/11 10:20:16;;;;;;;44.05;12.73;;;0.50;99.90;;;;;;5108171;28;20051;-61
2022/12/11 10:22:43;;;;;;;35.90;12.07;;;0.50;99.90;;;;;;5121179;28;20051;-61
2022/12/11 10:25:31;;;;;;;45.80;14.18;;;0.50;99.90;;;;;;5125702;28;20071;-61
2022/12/11 10:27:56;;;;;;;46.17;13.90;;;0.50;99.90;;;;;;5125907;28;20066;-60
2022/12/11 10:30:25;;;;;;;47.40;15.13;;;0.40;99.90;;;;;;5126521;28;20063;-61
2022/12/11 10:33:05;;;;;;;52.90;15.13;;;0.50;99.90;;;;;;5122755;28;20035;-61
2022/12/11 10:35:40;;;;;;;;;;;0.60;99.90;;;;;;5114511;28;20051;-61
2022/12/11 10:38:32;;;;;;;43.42;14.07;;;0.60;99.90;;;;;;5119814;27;19924;-61
2022/12/11 10:41:04;;;;;;;45.28;14.65;;;0.60;99.90;;;;;;5113447;27;20431;-61
2022/12/11 10:43:36;;;;;;;47.38;14.40;;;0.60;99.90;;;;;;5095451;27;20039;-61
2022/12/11 10:46:05;;;;;;;43.38;14.20;;;0.60;99.90;;;;;;5109589;27;20047;-61
2022/12/11 10:48:31;;;;;;;25.38;9.48;;;0.60;99.90;;;;;;5101241;27;20405;-61
2022/12/11 10:51:04;;;;;;;39.05;13.95;;;0.60;99.90;;;;;;5110650;27;20036;-61
2022/12/11 10:53:32;;;;;;;44.40;14.98;;;0.60;99.90;;;;;;5125585;27;20481;-61
2022/12/11 10:55:59;;;;;;;30.35;10.52;;;0.70;99.90;;;;;;5113820;27;20050;-61
2022/12/11 10:58:32;;;;;;;50.85;14.48;;;0.60;99.90;;;;;;5115630;27;20096;-61
2022/12/11 11:01:09;;;;;;;50.47;16.02;;;0.70;99.90;;;;;;5121289;27;20439;-61
2022/12/11 11:03:50;;;;;;;46.10;14.60;;;0.70;99.90;;;;;;5114785;27;20122;-62
2022/12/11 11:06:18;;;;;;;37.17;13.45;;;0.70;99.90;;;;;;5105384;27;20443;-61
2022/12/11 11:08:47;;;;;;;49.70;15.38;;;0.70;99.90;;;;;;5116311;27;20487;-61
2022/12/11 11:11:32;;;;;;;47.42;15.07;;;0.70;99.90;;;;;;5125387;27;20031;-61
2022/12/11 11:14:13;;;;;;;50.42;15.68;;;0.70;99.90;;;;;;5123631;27;20520;-61
2022/12/11 11:16:40;;;;;;;;;;;0.70;99.90;;;;;;5106806;27;20454;-61
2022/12/11 11:19:06;;;;;;;47.55;14.93;;;0.70;99.90;;;;;;5106428;27;19990;-61
2022/12/11 11:21:36;;;;;;;45.22;14.02;;;0.70;99.90;;;;;;5123920;27;20133;-61
2022/12/11 11:24:02;;;;;;;48.83;16.40;;;0.80;99.90;;;;;;5089441;27;20042;-61
2022/12/11 11:26:31;;;;;;;42.42;14.05;;;0.80;99.90;;;;;;5104583;27;20075;-61
2022/12/11 11:28:57;;;;;;;41.33;12.82;;;0.70;99.90;;;;;;5121697;27;20114;-61
2022/12/11 11:31:33;;;;;;;44.55;14.88;;;0.80;99.90;;;;;;5125522;27;20123;-61
2022/12/11 11:34:09;;;;;;;39.80;13.85;;;0.80;99.90;;;;;;5096820;28;20040;-61
2022/12/11 11:36:37;;;;;;;51.15;15.25;;;0.70;99.90;;;;;;5120608;27;20487;-61
2022/12/11 11:39:10;;;;;;;70.82;16.13;;;0.80;99.90;;;;;;5111001;27;20043;-61
2022/12/11 11:42:08;;;;;;;50.72;15.38;;;0.80;99.90;;;;;;5115527;27;20122;-61
2022/12/11 11:44:53;;;;;;;59.45;16.17;;;0.80;99.90;;;;;;5113467;27;20097;-61
2022/12/11 11:47:26;;;;;;;43.10;15.43;;;0.80;99.90;;;;;;5121877;27;20497;-61
2022/12/11 11:49:55;;;;;;;51.35;16.33;;;0.80;99.90;;;;;;5091995;27;20105;-61
2022/12/11 11:52:31;;;;;;;45.75;14.73;;;0.80;99.90;;;;;;5114999;27;20601;-61
2022/12/11 11:55:08;;;;;;;35.38;13.38;;;0.80;99.90;;;;;;5112454;27;20024;-61
2022/12/11 11:57:49;;;;;;;41.45;14.27;;;0.80;99.90;;;;;;5112519;27;20036;-61
2022/12/11 12:00:19;;;;;;;48.20;16.30;;;0.80;99.90;;;;;;5105847;27;20038;-61
2022/12/11 12:02:47;;;;;;;49.20;13.93;;;0.80;99.90;;;;;;5097963;27;20452;-62
2022/12/11 12:05:16;;;;;;;42.50;16.25;;;0.80;99.90;;;;;;5127581;27;20401;-60
2022/12/11 12:07:50;;;;;;;58.58;16.55;;;0.80;99.90;;;;;;5119336;27;20512;-61
2022/12/11 12:10:53;;;;;;;44.95;11.77;;;0.90;99.90;;;;;;5128733;27;20047;-60
2022/12/11 12:13:28;;;;;;;44.97;16.63;;;0.90;99.90;;;;;;5062059;28;20497;-61
2022/12/11 12:15:55;;;;;;;53.85;16.05;;;0.90;99.90;;;;;;5108355;27;20043;-61
2022/12/11 12:18:40;;;;;;;53.30;16.73;;;0.90;99.90;;;;;;5117392;27;20074;-61
2022/12/11 12:21:17;;;;;;;43.53;15.18;;;0.90;99.90;;;;;;5106074;28;20480;-61
2022/12/11 12:24:09;;;;;;;55.88;16.45;;;0.90;99.90;;;;;;5108256;28;20032;-61
2022/12/11 12:26:38;;;;;;;55.13;18.00;;;0.90;99.90;;;;;;5089069;28;20048;-61
2022/12/11 12:29:37;;;;;;;50.00;15.55;;;0.90;99.90;;;;;;5107670;27;20078;-61
2022/12/11 12:32:09;;;;;;;56.83;18.05;;;0.90;99.90;;;;;;5114773;27;20468;-61
2022/12/11 12:34:43;;;;;;;44.03;15.05;;;1.00;99.90;;;;;;5109877;27;20059;-61
2022/12/11 12:38:06;;;;;;;46.10;15.48;;;0.90;99.90;;;;;;5107500;28;20051;-61
2022/12/11 12:40:59;;;;;;;43.63;13.85;;;0.90;99.90;;;;;;5064023;27;20059;-61
2022/12/11 12:43:44;;;;;;;48.20;15.95;;;0.90;99.90;;;;;;5092925;27;20074;-61
2022/12/11 12:46:09;;;;;;;41.15;14.57;;;0.90;99.90;;;;;;5110688;27;20062;-60
2022/12/11 12:48:35;;;;;;;48.65;16.00;;;0.90;99.90;;;;;;5113097;27;20042;-61
2022/12/11 12:51:02;;;;;;;50.75;16.35;;;1.00;99.90;;;;;;5108943;27;20465;-60
2022/12/11 12:53:33;;;;;;;52.78;16.73;;;1.00;99.90;;;;;;5110183;27;20038;-61
2022/12/11 12:56:01;;;;;;;57.78;16.88;;;1.00;99.90;;;;;;5093068;27;20392;-60
2022/12/11 12:58:27;;;;;;;46.17;14.77;;;1.00;99.90;;;;;;5114038;27;20043;-61